sensor_id;sensor_type;location;lat;lon;timestamp;P1;durP1;ratioP1;P2;durP2;ratioP2
33475;SDS011;19814;48.224;11.422;2023-08-06T00:01:48;7.78;;;3.63;;
33475;SDS011;19814;48.224;11.422;2023-08-06T00:04:13;5.47;;;3.28;;
33475;SDS011;19814;48.224;11.422;2023-08-06T00:06:39;7.18;;;3.28;;
33475;SDS011;19814;48.224;11.422;2023-08-06T00:09:05;6.10;;;3.63;;
33475;SDS011;19814;48.224;11.422;2023-08-06T00:11:30;6.10;;;3.38;;
33475;SDS011;19814;48.224;11.422;2023-08-06T00:13:56;4.85;;;2.63;;
33475;SDS011;19814;48.224;11.422;2023-08-06T00:16:21;5.53;;;3.05;;
33475;SDS011;19814;48.224;11.422;2023-08-06T00:18:47;6.70;;;3.20;;
33475;SDS011;19814;48.224;11.422;2023-08-06T00:21:12;6.05;;;3.30;;
33475;SDS011;19814;48.224;11.422;2023-08-06T00:23:39;5.05;;;2.88;;
33475;SDS011;19814;48.224;11.422;2023-08-06T00:26:04;7.63;;;3.05;;
33475;SDS011;19814;48.224;11.422;2023-08-06T00:28:30;6.03;;;3.30;;
33475;SDS011;19814;48.224;11.422;2023-08-06T00:30:56;5.25;;;2.85;;
33475;SDS011;19814;48.224;11.422;2023-08-06T00:33:22;5.18;;;3.00;;
33475;SDS011;19814;48.224;11.422;2023-08-06T00:35:48;4.97;;;3.10;;
33475;SDS011;19814;48.224;11.422;2023-08-06T00:38:14;5.70;;;3.17;;
33475;SDS011;19814;48.224;11.422;2023-08-06T00:40:39;4.88;;;2.67;;
33475;SDS011;19814;48.224;11.422;2023-08-06T00:43:05;6.82;;;3.10;;
33475;SDS011;19814;48.224;11.422;2023-08-06T00:45:31;5.05;;;2.75;;
33475;SDS011;19814;48.224;11.422;2023-08-06T00:48:00;5.25;;;2.33;;
33475;SDS011;19814;48.224;11.422;2023-08-06T00:50:26;5.40;;;2.80;;
33475;SDS011;19814;48.224;11.422;2023-08-06T00:52:52;5.72;;;2.97;;
33475;SDS011;19814;48.224;11.422;2023-08-06T00:55:18;9.93;;;3.35;;
33475;SDS011;19814;48.224;11.422;2023-08-06T00:57:47;5.35;;;3.00;;
33475;SDS011;19814;48.224;11.422;2023-08-06T01:00:13;5.72;;;3.28;;
33475;SDS011;19814;48.224;11.422;2023-08-06T01:02:38;6.03;;;3.05;;
33475;SDS011;19814;48.224;11.422;2023-08-06T01:05:04;6.18;;;3.47;;
33475;SDS011;19814;48.224;11.422;2023-08-06T01:07:51;6.15;;;2.90;;
33475;SDS011;19814;48.224;11.422;2023-08-06T01:10:22;4.70;;;2.80;;
33475;SDS011;19814;48.224;11.422;2023-08-06T01:15:39;5.93;;;3.03;;
33475;SDS011;19814;48.224;11.422;2023-08-06T01:18:09;6.63;;;3.05;;
33475;SDS011;19814;48.224;11.422;2023-08-06T01:20:35;6.18;;;3.30;;
33475;SDS011;19814;48.224;11.422;2023-08-06T01:23:01;7.35;;;3.08;;
33475;SDS011;19814;48.224;11.422;2023-08-06T01:25:29;5.10;;;3.08;;
33475;SDS011;19814;48.224;11.422;2023-08-06T01:28:05;6.32;;;2.75;;
33475;SDS011;19814;48.224;11.422;2023-08-06T01:30:38;5.22;;;3.47;;
33475;SDS011;19814;48.224;11.422;2023-08-06T01:33:06;8.38;;;3.08;;
33475;SDS011;19814;48.224;11.422;2023-08-06T01:35:35;6.05;;;3.20;;
33475;SDS011;19814;48.224;11.422;2023-08-06T01:38:02;5.72;;;2.83;;
33475;SDS011;19814;48.224;11.422;2023-08-06T01:40:28;6.20;;;3.28;;
33475;SDS011;19814;48.224;11.422;2023-08-06T01:42:54;4.75;;;2.63;;
33475;SDS011;19814;48.224;11.422;2023-08-06T01:45:20;6.43;;;3.53;;
33475;SDS011;19814;48.224;11.422;2023-08-06T01:47:45;5.72;;;3.17;;
33475;SDS011;19814;48.224;11.422;2023-08-06T01:50:11;5.15;;;3.00;;
33475;SDS011;19814;48.224;11.422;2023-08-06T01:52:36;5.43;;;3.20;;
33475;SDS011;19814;48.224;11.422;2023-08-06T01:55:02;7.03;;;3.40;;
33475;SDS011;19814;48.224;11.422;2023-08-06T01:57:28;5.05;;;2.80;;
33475;SDS011;19814;48.224;11.422;2023-08-06T01:59:53;5.95;;;3.30;;
33475;SDS011;19814;48.224;11.422;2023-08-06T02:02:19;6.05;;;3.20;;
33475;SDS011;19814;48.224;11.422;2023-08-06T02:04:44;5.90;;;3.22;;
33475;SDS011;19814;48.224;11.422;2023-08-06T02:07:10;7.30;;;3.42;;
33475;SDS011;19814;48.224;11.422;2023-08-06T02:09:35;7.10;;;3.08;;
33475;SDS011;19814;48.224;11.422;2023-08-06T02:12:01;4.32;;;2.65;;
33475;SDS011;19814;48.224;11.422;2023-08-06T02:14:27;6.55;;;3.20;;
33475;SDS011;19814;48.224;11.422;2023-08-06T02:16:53;5.78;;;2.90;;
33475;SDS011;19814;48.224;11.422;2023-08-06T02:19:18;5.53;;;3.03;;
33475;SDS011;19814;48.224;11.422;2023-08-06T02:21:44;6.22;;;2.97;;
33475;SDS011;19814;48.224;11.422;2023-08-06T02:24:09;4.30;;;2.70;;
33475;SDS011;19814;48.224;11.422;2023-08-06T02:26:35;5.40;;;2.80;;
33475;SDS011;19814;48.224;11.422;2023-08-06T02:29:00;5.88;;;3.13;;
33475;SDS011;19814;48.224;11.422;2023-08-06T02:31:26;4.93;;;2.60;;
33475;SDS011;19814;48.224;11.422;2023-08-06T02:33:51;6.07;;;2.70;;
33475;SDS011;19814;48.224;11.422;2023-08-06T02:36:18;4.25;;;2.30;;
33475;SDS011;19814;48.224;11.422;2023-08-06T02:38:44;3.90;;;2.33;;
33475;SDS011;19814;48.224;11.422;2023-08-06T02:41:09;5.55;;;2.63;;
33475;SDS011;19814;48.224;11.422;2023-08-06T02:43:35;7.10;;;2.80;;
33475;SDS011;19814;48.224;11.422;2023-08-06T02:46:00;6.28;;;3.00;;
33475;SDS011;19814;48.224;11.422;2023-08-06T02:48:26;6.05;;;2.60;;
33475;SDS011;19814;48.224;11.422;2023-08-06T02:50:52;4.10;;;2.35;;
33475;SDS011;19814;48.224;11.422;2023-08-06T02:53:18;4.22;;;2.92;;
33475;SDS011;19814;48.224;11.422;2023-08-06T02:55:46;4.82;;;2.42;;
33475;SDS011;19814;48.224;11.422;2023-08-06T02:58:13;5.88;;;2.80;;
33475;SDS011;19814;48.224;11.422;2023-08-06T03:00:42;4.43;;;2.63;;
33475;SDS011;19814;48.224;11.422;2023-08-06T03:03:08;5.03;;;2.65;;
33475;SDS011;19814;48.224;11.422;2023-08-06T03:05:34;4.38;;;2.58;;
33475;SDS011;19814;48.224;11.422;2023-08-06T03:08:00;4.38;;;2.47;;
33475;SDS011;19814;48.224;11.422;2023-08-06T03:10:26;6.55;;;3.08;;
33475;SDS011;19814;48.224;11.422;2023-08-06T03:12:51;3.90;;;2.50;;
33475;SDS011;19814;48.224;11.422;2023-08-06T03:15:17;4.90;;;2.50;;
33475;SDS011;19814;48.224;11.422;2023-08-06T03:17:42;3.28;;;1.88;;
33475;SDS011;19814;48.224;11.422;2023-08-06T03:20:09;4.85;;;2.65;;
33475;SDS011;19814;48.224;11.422;2023-08-06T03:22:35;4.60;;;2.33;;
33475;SDS011;19814;48.224;11.422;2023-08-06T03:25:00;3.95;;;2.05;;
33475;SDS011;19814;48.224;11.422;2023-08-06T03:27:26;3.67;;;2.22;;
33475;SDS011;19814;48.224;11.422;2023-08-06T03:29:52;4.00;;;2.05;;
33475;SDS011;19814;48.224;11.422;2023-08-06T03:32:17;4.22;;;2.38;;
33475;SDS011;19814;48.224;11.422;2023-08-06T03:34:43;3.50;;;2.15;;
33475;SDS011;19814;48.224;11.422;2023-08-06T03:37:08;7.10;;;2.38;;
33475;SDS011;19814;48.224;11.422;2023-08-06T03:39:34;3.60;;;1.95;;
33475;SDS011;19814;48.224;11.422;2023-08-06T03:41:59;4.13;;;2.10;;
33475;SDS011;19814;48.224;11.422;2023-08-06T03:44:25;4.18;;;2.10;;
33475;SDS011;19814;48.224;11.422;2023-08-06T03:46:52;4.65;;;2.33;;
33475;SDS011;19814;48.224;11.422;2023-08-06T03:49:17;4.57;;;2.50;;
33475;SDS011;19814;48.224;11.422;2023-08-06T03:51:43;4.70;;;2.10;;
33475;SDS011;19814;48.224;11.422;2023-08-06T03:54:08;3.70;;;2.00;;
33475;SDS011;19814;48.224;11.422;2023-08-06T03:56:34;5.25;;;2.60;;
33475;SDS011;19814;48.224;11.422;2023-08-06T03:58:59;3.70;;;1.95;;
33475;SDS011;19814;48.224;11.422;2023-08-06T04:01:25;2.70;;;1.80;;
33475;SDS011;19814;48.224;11.422;2023-08-06T04:03:50;4.55;;;2.30;;
33475;SDS011;19814;48.224;11.422;2023-08-06T04:06:16;5.65;;;2.35;;
33475;SDS011;19814;48.224;11.422;2023-08-06T04:08:41;4.40;;;1.88;;
33475;SDS011;19814;48.224;11.422;2023-08-06T04:11:07;3.50;;;2.05;;
33475;SDS011;19814;48.224;11.422;2023-08-06T04:13:33;3.47;;;2.10;;
33475;SDS011;19814;48.224;11.422;2023-08-06T04:16:02;4.55;;;2.22;;
33475;SDS011;19814;48.224;11.422;2023-08-06T04:18:28;3.38;;;1.88;;
33475;SDS011;19814;48.224;11.422;2023-08-06T04:20:53;3.83;;;1.67;;
33475;SDS011;19814;48.224;11.422;2023-08-06T04:23:20;3.85;;;1.92;;
33475;SDS011;19814;48.224;11.422;2023-08-06T04:25:46;3.30;;;1.77;;
33475;SDS011;19814;48.224;11.422;2023-08-06T04:28:11;5.00;;;1.85;;
33475;SDS011;19814;48.224;11.422;2023-08-06T04:30:37;3.83;;;1.70;;
33475;SDS011;19814;48.224;11.422;2023-08-06T04:33:03;4.63;;;2.17;;
33475;SDS011;19814;48.224;11.422;2023-08-06T04:35:28;3.80;;;1.83;;
33475;SDS011;19814;48.224;11.422;2023-08-06T04:37:54;3.60;;;1.90;;
33475;SDS011;19814;48.224;11.422;2023-08-06T04:40:20;4.00;;;2.03;;
33475;SDS011;19814;48.224;11.422;2023-08-06T04:42:45;6.32;;;1.67;;
33475;SDS011;19814;48.224;11.422;2023-08-06T04:45:11;2.72;;;1.65;;
33475;SDS011;19814;48.224;11.422;2023-08-06T04:47:36;3.38;;;1.80;;
33475;SDS011;19814;48.224;11.422;2023-08-06T04:50:02;3.97;;;1.65;;
33475;SDS011;19814;48.224;11.422;2023-08-06T04:52:27;3.53;;;1.60;;
33475;SDS011;19814;48.224;11.422;2023-08-06T04:54:56;3.35;;;1.75;;
33475;SDS011;19814;48.224;11.422;2023-08-06T04:57:21;2.90;;;1.42;;
33475;SDS011;19814;48.224;11.422;2023-08-06T04:59:47;4.30;;;1.80;;
33475;SDS011;19814;48.224;11.422;2023-08-06T05:02:13;2.90;;;1.73;;
33475;SDS011;19814;48.224;11.422;2023-08-06T05:04:39;3.30;;;1.70;;
33475;SDS011;19814;48.224;11.422;2023-08-06T05:07:05;5.50;;;1.83;;
33475;SDS011;19814;48.224;11.422;2023-08-06T05:09:30;2.63;;;1.40;;
33475;SDS011;19814;48.224;11.422;2023-08-06T05:11:56;2.47;;;1.52;;
33475;SDS011;19814;48.224;11.422;2023-08-06T05:14:21;3.45;;;1.77;;
33475;SDS011;19814;48.224;11.422;2023-08-06T05:16:47;3.25;;;1.77;;
33475;SDS011;19814;48.224;11.422;2023-08-06T05:19:13;3.25;;;1.55;;
33475;SDS011;19814;48.224;11.422;2023-08-06T05:21:38;2.72;;;1.63;;
33475;SDS011;19814;48.224;11.422;2023-08-06T05:24:04;2.70;;;1.50;;
33475;SDS011;19814;48.224;11.422;2023-08-06T05:26:29;2.25;;;1.30;;
33475;SDS011;19814;48.224;11.422;2023-08-06T05:28:55;4.20;;;1.58;;
33475;SDS011;19814;48.224;11.422;2023-08-06T05:31:20;4.40;;;1.70;;
33475;SDS011;19814;48.224;11.422;2023-08-06T05:33:46;2.95;;;1.35;;
33475;SDS011;19814;48.224;11.422;2023-08-06T05:36:11;2.85;;;1.30;;
33475;SDS011;19814;48.224;11.422;2023-08-06T05:38:37;2.47;;;1.38;;
33475;SDS011;19814;48.224;11.422;2023-08-06T05:41:02;3.95;;;1.60;;
33475;SDS011;19814;48.224;11.422;2023-08-06T05:43:28;2.30;;;1.30;;
33475;SDS011;19814;48.224;11.422;2023-08-06T05:45:54;3.92;;;1.55;;
33475;SDS011;19814;48.224;11.422;2023-08-06T05:48:20;4.35;;;1.55;;
33475;SDS011;19814;48.224;11.422;2023-08-06T05:50:47;2.65;;;1.38;;
33475;SDS011;19814;48.224;11.422;2023-08-06T05:53:13;3.22;;;1.48;;
33475;SDS011;19814;48.224;11.422;2023-08-06T05:55:38;3.78;;;1.90;;
33475;SDS011;19814;48.224;11.422;2023-08-06T05:58:04;4.50;;;1.42;;
33475;SDS011;19814;48.224;11.422;2023-08-06T06:00:30;2.53;;;1.45;;
33475;SDS011;19814;48.224;11.422;2023-08-06T06:02:55;3.22;;;1.40;;
33475;SDS011;19814;48.224;11.422;2023-08-06T06:05:21;4.15;;;1.55;;
33475;SDS011;19814;48.224;11.422;2023-08-06T06:07:46;2.55;;;1.33;;
33475;SDS011;19814;48.224;11.422;2023-08-06T06:10:12;2.90;;;1.55;;
33475;SDS011;19814;48.224;11.422;2023-08-06T06:12:38;3.10;;;1.52;;
33475;SDS011;19814;48.224;11.422;2023-08-06T06:15:04;2.38;;;1.15;;
33475;SDS011;19814;48.224;11.422;2023-08-06T06:17:30;2.80;;;1.42;;
33475;SDS011;19814;48.224;11.422;2023-08-06T06:19:55;2.08;;;1.20;;
33475;SDS011;19814;48.224;11.422;2023-08-06T06:22:21;2.65;;;1.38;;
33475;SDS011;19814;48.224;11.422;2023-08-06T06:24:46;4.55;;;1.35;;
33475;SDS011;19814;48.224;11.422;2023-08-06T06:27:12;2.65;;;1.30;;
33475;SDS011;19814;48.224;11.422;2023-08-06T06:29:38;2.63;;;1.33;;
33475;SDS011;19814;48.224;11.422;2023-08-06T06:32:04;2.38;;;1.40;;
33475;SDS011;19814;48.224;11.422;2023-08-06T06:34:30;1.60;;;1.15;;
33475;SDS011;19814;48.224;11.422;2023-08-06T06:36:55;1.60;;;1.10;;
33475;SDS011;19814;48.224;11.422;2023-08-06T06:39:21;3.45;;;1.48;;
33475;SDS011;19814;48.224;11.422;2023-08-06T06:41:46;2.58;;;1.08;;
33475;SDS011;19814;48.224;11.422;2023-08-06T06:44:13;2.63;;;1.15;;
33475;SDS011;19814;48.224;11.422;2023-08-06T06:46:39;2.45;;;1.15;;
33475;SDS011;19814;48.224;11.422;2023-08-06T06:49:05;1.90;;;1.10;;
33475;SDS011;19814;48.224;11.422;2023-08-06T06:51:30;3.08;;;1.05;;
33475;SDS011;19814;48.224;11.422;2023-08-06T06:53:57;2.55;;;1.13;;
33475;SDS011;19814;48.224;11.422;2023-08-06T06:56:22;1.65;;;1.10;;
33475;SDS011;19814;48.224;11.422;2023-08-06T06:58:48;2.30;;;1.00;;
33475;SDS011;19814;48.224;11.422;2023-08-06T07:01:13;1.23;;;0.70;;
33475;SDS011;19814;48.224;11.422;2023-08-06T07:03:39;2.78;;;0.80;;
33475;SDS011;19814;48.224;11.422;2023-08-06T07:06:06;1.48;;;0.75;;
33475;SDS011;19814;48.224;11.422;2023-08-06T07:08:31;2.35;;;1.00;;
33475;SDS011;19814;48.224;11.422;2023-08-06T07:11:03;1.63;;;0.60;;
33475;SDS011;19814;48.224;11.422;2023-08-06T07:13:30;1.40;;;0.63;;
33475;SDS011;19814;48.224;11.422;2023-08-06T07:15:56;0.47;;;0.45;;
33475;SDS011;19814;48.224;11.422;2023-08-06T07:18:22;2.20;;;0.90;;
33475;SDS011;19814;48.224;11.422;2023-08-06T07:20:51;1.85;;;0.55;;
33475;SDS011;19814;48.224;11.422;2023-08-06T07:23:19;1.27;;;0.60;;
33475;SDS011;19814;48.224;11.422;2023-08-06T07:25:46;1.70;;;0.60;;
33475;SDS011;19814;48.224;11.422;2023-08-06T07:28:12;0.95;;;0.60;;
33475;SDS011;19814;48.224;11.422;2023-08-06T07:30:41;0.85;;;0.55;;
33475;SDS011;19814;48.224;11.422;2023-08-06T07:33:08;3.38;;;0.70;;
33475;SDS011;19814;48.224;11.422;2023-08-06T07:35:33;0.90;;;0.50;;
33475;SDS011;19814;48.224;11.422;2023-08-06T07:37:59;2.15;;;0.80;;
33475;SDS011;19814;48.224;11.422;2023-08-06T07:40:25;1.10;;;0.63;;
33475;SDS011;19814;48.224;11.422;2023-08-06T07:42:50;1.75;;;0.63;;
33475;SDS011;19814;48.224;11.422;2023-08-06T07:45:16;1.17;;;0.60;;
33475;SDS011;19814;48.224;11.422;2023-08-06T07:47:42;1.80;;;0.82;;
33475;SDS011;19814;48.224;11.422;2023-08-06T07:50:08;2.42;;;0.70;;
33475;SDS011;19814;48.224;11.422;2023-08-06T07:52:34;1.02;;;0.50;;
33475;SDS011;19814;48.224;11.422;2023-08-06T07:55:00;1.92;;;0.65;;
33475;SDS011;19814;48.224;11.422;2023-08-06T07:57:29;0.47;;;0.47;;
33475;SDS011;19814;48.224;11.422;2023-08-06T07:59:55;3.10;;;0.70;;
33475;SDS011;19814;48.224;11.422;2023-08-06T08:02:21;2.38;;;0.50;;
33475;SDS011;19814;48.224;11.422;2023-08-06T08:04:47;1.13;;;0.68;;
33475;SDS011;19814;48.224;11.422;2023-08-06T08:07:13;1.42;;;0.60;;
33475;SDS011;19814;48.224;11.422;2023-08-06T08:09:39;1.08;;;0.45;;
33475;SDS011;19814;48.224;11.422;2023-08-06T08:12:05;1.58;;;0.50;;
33475;SDS011;19814;48.224;11.422;2023-08-06T08:14:30;2.78;;;0.70;;
33475;SDS011;19814;48.224;11.422;2023-08-06T08:17:03;1.35;;;0.55;;
33475;SDS011;19814;48.224;11.422;2023-08-06T08:19:30;2.73;;;0.80;;
33475;SDS011;19814;48.224;11.422;2023-08-06T08:21:57;2.25;;;0.60;;
33475;SDS011;19814;48.224;11.422;2023-08-06T08:24:22;1.25;;;0.57;;
33475;SDS011;19814;48.224;11.422;2023-08-06T08:26:51;1.73;;;0.50;;
33475;SDS011;19814;48.224;11.422;2023-08-06T08:29:18;2.22;;;0.52;;
33475;SDS011;19814;48.224;11.422;2023-08-06T08:31:44;1.90;;;0.60;;
33475;SDS011;19814;48.224;11.422;2023-08-06T08:34:10;0.75;;;0.50;;
33475;SDS011;19814;48.224;11.422;2023-08-06T08:36:36;1.08;;;0.47;;
33475;SDS011;19814;48.224;11.422;2023-08-06T08:39:01;0.82;;;0.50;;
33475;SDS011;19814;48.224;11.422;2023-08-06T08:41:28;0.65;;;0.40;;
33475;SDS011;19814;48.224;11.422;2023-08-06T08:43:55;0.30;;;0.30;;
33475;SDS011;19814;48.224;11.422;2023-08-06T08:46:23;1.25;;;0.38;;
33475;SDS011;19814;48.224;11.422;2023-08-06T08:48:51;0.93;;;0.30;;
33475;SDS011;19814;48.224;11.422;2023-08-06T08:51:17;2.03;;;0.40;;
33475;SDS011;19814;48.224;11.422;2023-08-06T08:53:43;0.77;;;0.30;;
33475;SDS011;19814;48.224;11.422;2023-08-06T08:56:10;1.17;;;0.40;;
33475;SDS011;19814;48.224;11.422;2023-08-06T08:58:39;0.63;;;0.52;;
33475;SDS011;19814;48.224;11.422;2023-08-06T09:01:04;0.75;;;0.35;;
33475;SDS011;19814;48.224;11.422;2023-08-06T09:03:32;0.40;;;0.25;;
33475;SDS011;19814;48.224;11.422;2023-08-06T09:05:59;0.68;;;0.20;;
33475;SDS011;19814;48.224;11.422;2023-08-06T09:08:27;1.40;;;0.30;;
33475;SDS011;19814;48.224;11.422;2023-08-06T09:10:59;0.20;;;0.20;;
33475;SDS011;19814;48.224;11.422;2023-08-06T09:13:26;0.57;;;0.32;;
33475;SDS011;19814;48.224;11.422;2023-08-06T09:15:52;1.75;;;0.32;;
33475;SDS011;19814;48.224;11.422;2023-08-06T09:18:24;0.82;;;0.20;;
33475;SDS011;19814;48.224;11.422;2023-08-06T09:20:54;0.93;;;0.30;;
33475;SDS011;19814;48.224;11.422;2023-08-06T09:23:20;0.85;;;0.20;;
33475;SDS011;19814;48.224;11.422;2023-08-06T09:25:45;0.45;;;0.30;;
33475;SDS011;19814;48.224;11.422;2023-08-06T09:28:11;0.80;;;0.20;;
33475;SDS011;19814;48.224;11.422;2023-08-06T09:30:36;0.17;;;0.13;;
33475;SDS011;19814;48.224;11.422;2023-08-06T09:33:03;0.50;;;0.20;;
33475;SDS011;19814;48.224;11.422;2023-08-06T09:35:35;0.63;;;0.20;;
33475;SDS011;19814;48.224;11.422;2023-08-06T09:38:07;0.45;;;0.20;;
33475;SDS011;19814;48.224;11.422;2023-08-06T09:40:35;0.45;;;0.30;;
33475;SDS011;19814;48.224;11.422;2023-08-06T09:43:01;0.32;;;0.10;;
33475;SDS011;19814;48.224;11.422;2023-08-06T09:45:30;0.30;;;0.20;;
33475;SDS011;19814;48.224;11.422;2023-08-06T09:47:58;1.15;;;0.20;;
33475;SDS011;19814;48.224;11.422;2023-08-06T09:50:26;0.15;;;0.10;;
33475;SDS011;19814;48.224;11.422;2023-08-06T09:52:55;0.57;;;0.30;;
33475;SDS011;19814;48.224;11.422;2023-08-06T09:55:21;2.15;;;0.63;;
33475;SDS011;19814;48.224;11.422;2023-08-06T09:57:50;0.10;;;0.10;;
33475;SDS011;19814;48.224;11.422;2023-08-06T10:00:16;0.40;;;0.20;;
33475;SDS011;19814;48.224;11.422;2023-08-06T10:02:42;0.17;;;0.17;;
33475;SDS011;19814;48.224;11.422;2023-08-06T10:05:08;1.55;;;0.60;;
33475;SDS011;19814;48.224;11.422;2023-08-06T10:07:34;0.55;;;0.20;;
33475;SDS011;19814;48.224;11.422;2023-08-06T10:10:00;1.50;;;0.10;;
33475;SDS011;19814;48.224;11.422;2023-08-06T10:12:28;0.30;;;0.20;;
33475;SDS011;19814;48.224;11.422;2023-08-06T10:14:58;0.70;;;0.10;;
33475;SDS011;19814;48.224;11.422;2023-08-06T10:17:26;0.28;;;0.10;;
33475;SDS011;19814;48.224;11.422;2023-08-06T10:19:53;4.13;;;0.22;;
33475;SDS011;19814;48.224;11.422;2023-08-06T10:22:21;1.70;;;0.20;;
33475;SDS011;19814;48.224;11.422;2023-08-06T10:24:47;0.30;;;0.10;;
33475;SDS011;19814;48.224;11.422;2023-08-06T10:27:13;1.75;;;0.10;;
33475;SDS011;19814;48.224;11.422;2023-08-06T10:32:55;0.15;;;0.10;;
33475;SDS011;19814;48.224;11.422;2023-08-06T10:35:43;0.10;;;0.10;;
33475;SDS011;19814;48.224;11.422;2023-08-06T10:38:17;0.63;;;0.10;;
33475;SDS011;19814;48.224;11.422;2023-08-06T10:40:50;0.77;;;0.30;;
33475;SDS011;19814;48.224;11.422;2023-08-06T10:43:25;1.45;;;0.13;;
33475;SDS011;19814;48.224;11.422;2023-08-06T10:45:52;0.68;;;0.10;;
33475;SDS011;19814;48.224;11.422;2023-08-06T10:51:02;0.95;;;0.30;;
33475;SDS011;19814;48.224;11.422;2023-08-06T10:53:29;2.50;;;0.28;;
33475;SDS011;19814;48.224;11.422;2023-08-06T10:55:55;0.52;;;0.22;;
33475;SDS011;19814;48.224;11.422;2023-08-06T10:58:21;1.27;;;0.10;;
33475;SDS011;19814;48.224;11.422;2023-08-06T11:00:46;0.65;;;0.43;;
33475;SDS011;19814;48.224;11.422;2023-08-06T11:03:12;2.10;;;0.45;;
33475;SDS011;19814;48.224;11.422;2023-08-06T11:05:38;0.45;;;0.10;;
33475;SDS011;19814;48.224;11.422;2023-08-06T11:08:04;0.00;;;0.00;;
33475;SDS011;19814;48.224;11.422;2023-08-06T11:10:32;4.20;;;0.20;;
33475;SDS011;19814;48.224;11.422;2023-08-06T11:13:00;0.20;;;0.08;;
33475;SDS011;19814;48.224;11.422;2023-08-06T11:15:27;0.10;;;0.10;;
33475;SDS011;19814;48.224;11.422;2023-08-06T11:17:54;0.47;;;0.00;;
33475;SDS011;19814;48.224;11.422;2023-08-06T11:20:20;0.10;;;0.10;;
33475;SDS011;19814;48.224;11.422;2023-08-06T11:22:47;0.00;;;0.00;;
33475;SDS011;19814;48.224;11.422;2023-08-06T11:25:12;1.88;;;0.38;;
33475;SDS011;19814;48.224;11.422;2023-08-06T11:27:38;3.42;;;0.80;;
33475;SDS011;19814;48.224;11.422;2023-08-06T11:30:04;0.65;;;0.43;;
33475;SDS011;19814;48.224;11.422;2023-08-06T11:32:30;0.45;;;0.10;;
33475;SDS011;19814;48.224;11.422;2023-08-06T11:34:55;1.13;;;0.15;;
33475;SDS011;19814;48.224;11.422;2023-08-06T11:37:21;0.63;;;0.30;;
33475;SDS011;19814;48.224;11.422;2023-08-06T11:39:49;1.80;;;0.20;;
33475;SDS011;19814;48.224;11.422;2023-08-06T11:42:15;3.30;;;0.20;;
33475;SDS011;19814;48.224;11.422;2023-08-06T11:44:41;1.23;;;0.30;;
33475;SDS011;19814;48.224;11.422;2023-08-06T11:47:12;2.25;;;0.45;;
33475;SDS011;19814;48.224;11.422;2023-08-06T11:52:09;0.88;;;0.20;;
33475;SDS011;19814;48.224;11.422;2023-08-06T11:54:35;0.32;;;0.00;;
33475;SDS011;19814;48.224;11.422;2023-08-06T11:57:02;0.47;;;0.10;;
33475;SDS011;19814;48.224;11.422;2023-08-06T11:59:30;0.30;;;0.00;;
33475;SDS011;19814;48.224;11.422;2023-08-06T12:01:55;0.00;;;0.00;;
33475;SDS011;19814;48.224;11.422;2023-08-06T12:04:21;0.73;;;0.10;;
33475;SDS011;19814;48.224;11.422;2023-08-06T12:06:46;0.10;;;0.10;;
33475;SDS011;19814;48.224;11.422;2023-08-06T12:09:12;0.10;;;0.10;;
33475;SDS011;19814;48.224;11.422;2023-08-06T12:11:37;0.00;;;0.00;;
33475;SDS011;19814;48.224;11.422;2023-08-06T12:14:03;0.00;;;0.00;;
33475;SDS011;19814;48.224;11.422;2023-08-06T12:16:28;0.13;;;0.10;;
33475;SDS011;19814;48.224;11.422;2023-08-06T12:18:54;2.35;;;0.20;;
33475;SDS011;19814;48.224;11.422;2023-08-06T12:21:19;0.00;;;0.00;;
33475;SDS011;19814;48.224;11.422;2023-08-06T12:23:45;0.28;;;0.10;;
33475;SDS011;19814;48.224;11.422;2023-08-06T12:26:10;0.00;;;0.00;;
33475;SDS011;19814;48.224;11.422;2023-08-06T12:28:36;0.28;;;0.08;;
33475;SDS011;19814;48.224;11.422;2023-08-06T12:31:01;2.17;;;0.13;;
33475;SDS011;19814;48.224;11.422;2023-08-06T12:33:27;0.20;;;0.10;;
33475;SDS011;19814;48.224;11.422;2023-08-06T12:35:52;0.20;;;0.10;;
33475;SDS011;19814;48.224;11.422;2023-08-06T12:38:19;0.00;;;0.00;;
33475;SDS011;19814;48.224;11.422;2023-08-06T12:40:45;3.20;;;0.20;;
33475;SDS011;19814;48.224;11.422;2023-08-06T12:43:11;0.52;;;0.05;;
33475;SDS011;19814;48.224;11.422;2023-08-06T12:45:36;0.00;;;0.00;;
33475;SDS011;19814;48.224;11.422;2023-08-06T12:48:02;0.00;;;0.00;;
33475;SDS011;19814;48.224;11.422;2023-08-06T12:50:28;0.00;;;0.00;;
33475;SDS011;19814;48.224;11.422;2023-08-06T12:52:54;0.17;;;0.10;;
33475;SDS011;19814;48.224;11.422;2023-08-06T12:55:19;2.65;;;0.10;;
33475;SDS011;19814;48.224;11.422;2023-08-06T12:57:45;0.10;;;0.10;;
33475;SDS011;19814;48.224;11.422;2023-08-06T13:00:10;0.20;;;0.10;;
33475;SDS011;19814;48.224;11.422;2023-08-06T13:02:36;0.10;;;0.10;;
33475;SDS011;19814;48.224;11.422;2023-08-06T13:05:01;0.15;;;0.05;;
33475;SDS011;19814;48.224;11.422;2023-08-06T13:07:30;0.00;;;0.00;;
33475;SDS011;19814;48.224;11.422;2023-08-06T13:09:56;1.55;;;0.10;;
33475;SDS011;19814;48.224;11.422;2023-08-06T13:12:21;1.15;;;0.08;;
33475;SDS011;19814;48.224;11.422;2023-08-06T13:14:48;0.15;;;0.00;;
33475;SDS011;19814;48.224;11.422;2023-08-06T13:17:13;1.55;;;0.20;;
33475;SDS011;19814;48.224;11.422;2023-08-06T13:19:39;0.10;;;0.03;;
33475;SDS011;19814;48.224;11.422;2023-08-06T13:22:05;0.15;;;0.00;;
33475;SDS011;19814;48.224;11.422;2023-08-06T13:24:33;0.20;;;0.10;;
33475;SDS011;19814;48.224;11.422;2023-08-06T13:26:59;0.05;;;0.00;;
33475;SDS011;19814;48.224;11.422;2023-08-06T13:29:25;0.38;;;0.10;;
33475;SDS011;19814;48.224;11.422;2023-08-06T13:31:52;1.30;;;0.10;;
33475;SDS011;19814;48.224;11.422;2023-08-06T13:34:18;0.10;;;0.10;;
33475;SDS011;19814;48.224;11.422;2023-08-06T13:36:44;0.00;;;0.00;;
33475;SDS011;19814;48.224;11.422;2023-08-06T13:39:10;0.10;;;0.00;;
33475;SDS011;19814;48.224;11.422;2023-08-06T13:41:36;0.10;;;0.10;;
33475;SDS011;19814;48.224;11.422;2023-08-06T13:44:03;0.28;;;0.10;;
33475;SDS011;19814;48.224;11.422;2023-08-06T13:46:29;0.00;;;0.00;;
33475;SDS011;19814;48.224;11.422;2023-08-06T13:48:54;0.32;;;0.10;;
33475;SDS011;19814;48.224;11.422;2023-08-06T13:51:20;0.15;;;0.05;;
33475;SDS011;19814;48.224;11.422;2023-08-06T13:53:45;1.10;;;0.20;;
33475;SDS011;19814;48.224;11.422;2023-08-06T13:56:11;2.17;;;0.17;;
33475;SDS011;19814;48.224;11.422;2023-08-06T13:58:37;0.00;;;0.00;;
33475;SDS011;19814;48.224;11.422;2023-08-06T14:01:03;0.30;;;0.08;;
33475;SDS011;19814;48.224;11.422;2023-08-06T14:03:29;0.52;;;0.00;;
33475;SDS011;19814;48.224;11.422;2023-08-06T14:05:55;0.00;;;0.00;;
33475;SDS011;19814;48.224;11.422;2023-08-06T14:08:21;0.20;;;0.10;;
33475;SDS011;19814;48.224;11.422;2023-08-06T14:10:48;3.88;;;0.20;;
33475;SDS011;19814;48.224;11.422;2023-08-06T14:13:14;0.10;;;0.10;;
33475;SDS011;19814;48.224;11.422;2023-08-06T14:15:39;0.38;;;0.20;;
33475;SDS011;19814;48.224;11.422;2023-08-06T14:18:05;0.65;;;0.00;;
33475;SDS011;19814;48.224;11.422;2023-08-06T14:20:33;0.43;;;0.20;;
33475;SDS011;19814;48.224;11.422;2023-08-06T14:22:59;0.25;;;0.03;;
33475;SDS011;19814;48.224;11.422;2023-08-06T14:25:24;2.38;;;0.17;;
33475;SDS011;19814;48.224;11.422;2023-08-06T14:27:50;0.10;;;0.05;;
33475;SDS011;19814;48.224;11.422;2023-08-06T14:30:15;0.08;;;0.08;;
33475;SDS011;19814;48.224;11.422;2023-08-06T14:32:41;0.10;;;0.10;;
33475;SDS011;19814;48.224;11.422;2023-08-06T14:35:07;0.15;;;0.10;;
33475;SDS011;19814;48.224;11.422;2023-08-06T14:37:32;0.17;;;0.13;;
33475;SDS011;19814;48.224;11.422;2023-08-06T14:39:58;0.17;;;0.13;;